sensor_id;sensor_type;location;lat;lon;timestamp;pressure;altitude;pressure_sealevel;temperature;humidity
42887;BME280;29032;56.028;92.904;2022-07-03T00:02:41;98510.66;;;16.61;52.65
42887;BME280;29032;56.028;92.904;2022-07-03T00:07:44;98500.56;;;16.68;53.33
42887;BME280;29032;56.028;92.904;2022-07-03T00:12:46;98515.78;;;16.65;52.76
42887;BME280;29032;56.028;92.904;2022-07-03T00:17:49;98517.72;;;16.62;52.58
42887;BME280;29032;56.028;92.904;2022-07-03T00:22:52;98517.25;;;16.66;52.82
42887;BME280;29032;56.028;92.904;2022-07-03T00:27:55;98506.50;;;16.62;52.57
42887;BME280;29032;56.028;92.904;2022-07-03T00:32:58;98503.97;;;16.66;53.18
42887;BME280;29032;56.028;92.904;2022-07-03T00:38:03;98502.69;;;16.79;52.92
42887;BME280;29032;56.028;92.904;2022-07-03T00:43:05;98507.25;;;16.84;53.09
42887;BME280;29032;56.028;92.904;2022-07-03T00:48:10;98504.97;;;16.92;52.63
42887;BME280;29032;56.028;92.904;2022-07-03T00:53:19;98497.56;;;16.97;52.35
42887;BME280;29032;56.028;92.904;2022-07-03T00:58:25;98502.44;;;16.96;51.85
42887;BME280;29032;56.028;92.904;2022-07-03T01:03:28;98502.69;;;17.00;51.80
42887;BME280;29032;56.028;92.904;2022-07-03T01:08:36;98500.88;;;17.26;52.23
42887;BME280;29032;56.028;92.904;2022-07-03T01:13:44;98501.91;;;17.10;51.47
42887;BME280;29032;56.028;92.904;2022-07-03T01:18:51;98510.19;;;17.08;51.56
42887;BME280;29032;56.028;92.904;2022-07-03T01:24:20;98519.09;;;17.25;51.67
42887;BME280;29032;56.028;92.904;2022-07-03T01:29:38;98521.19;;;17.25;51.70
42887;BME280;29032;56.028;92.904;2022-07-03T01:34:51;98530.59;;;17.29;51.37
42887;BME280;29032;56.028;92.904;2022-07-03T01:39:57;98539.66;;;17.28;51.25
42887;BME280;29032;56.028;92.904;2022-07-03T01:45:02;98518.16;;;17.33;51.55
42887;BME280;29032;56.028;92.904;2022-07-03T01:50:06;98529.06;;;17.38;51.22
42887;BME280;29032;56.028;92.904;2022-07-03T01:55:09;98517.66;;;17.36;50.42
42887;BME280;29032;56.028;92.904;2022-07-03T02:00:17;98523.38;;;17.48;51.30
42887;BME280;29032;56.028;92.904;2022-07-03T02:05:31;98531.88;;;17.60;50.95
42887;BME280;29032;56.028;92.904;2022-07-03T02:10:38;98515.13;;;17.62;50.84
42887;BME280;29032;56.028;92.904;2022-07-03T02:15:43;98522.72;;;17.71;50.38
42887;BME280;29032;56.028;92.904;2022-07-03T02:20:46;98518.84;;;17.76;49.89
42887;BME280;29032;56.028;92.904;2022-07-03T02:25:55;98529.81;;;17.72;49.58
42887;BME280;29032;56.028;92.904;2022-07-03T02:31:02;98525.41;;;17.69;49.30
42887;BME280;29032;56.028;92.904;2022-07-03T02:36:10;98531.78;;;17.69;50.92
42887;BME280;29032;56.028;92.904;2022-07-03T02:41:17;98529.59;;;17.68;49.39
42887;BME280;29032;56.028;92.904;2022-07-03T02:46:32;98529.47;;;17.77;49.63
42887;BME280;29032;56.028;92.904;2022-07-03T02:51:37;98509.03;;;17.65;49.04
42887;BME280;29032;56.028;92.904;2022-07-03T02:56:46;98504.88;;;17.78;49.20
42887;BME280;29032;56.028;92.904;2022-07-03T03:02:00;98505.91;;;17.94;48.97
42887;BME280;29032;56.028;92.904;2022-07-03T03:07:13;98511.66;;;17.96;48.38
42887;BME280;29032;56.028;92.904;2022-07-03T03:12:31;98524.78;;;18.03;48.75
42887;BME280;29032;56.028;92.904;2022-07-03T03:17:42;98518.91;;;18.11;48.52
42887;BME280;29032;56.028;92.904;2022-07-03T03:22:59;98508.75;;;18.18;48.75
42887;BME280;29032;56.028;92.904;2022-07-03T03:28:04;98508.38;;;18.11;47.66
42887;BME280;29032;56.028;92.904;2022-07-03T03:33:09;98514.28;;;18.16;47.76
42887;BME280;29032;56.028;92.904;2022-07-03T03:38:12;98528.22;;;18.13;47.94
42887;BME280;29032;56.028;92.904;2022-07-03T03:43:14;98519.91;;;18.16;47.54
42887;BME280;29032;56.028;92.904;2022-07-03T03:48:17;98525.78;;;18.20;48.24
42887;BME280;29032;56.028;92.904;2022-07-03T03:53:20;98525.53;;;18.16;48.16
42887;BME280;29032;56.028;92.904;2022-07-03T03:58:22;98540.84;;;18.12;48.09
42887;BME280;29032;56.028;92.904;2022-07-03T04:03:26;98534.47;;;18.12;48.14
42887;BME280;29032;56.028;92.904;2022-07-03T04:08:29;98541.78;;;18.05;47.84
42887;BME280;29032;56.028;92.904;2022-07-03T04:13:31;98538.00;;;18.01;48.05
42887;BME280;29032;56.028;92.904;2022-07-03T04:18:35;98539.25;;;18.09;48.19
42887;BME280;29032;56.028;92.904;2022-07-03T04:23:37;98537.63;;;18.06;47.38
42887;BME280;29032;56.028;92.904;2022-07-03T04:28:40;98527.38;;;18.11;46.77
42887;BME280;29032;56.028;92.904;2022-07-03T04:33:44;98522.84;;;18.18;47.35
42887;BME280;29032;56.028;92.904;2022-07-03T04:38:46;98512.31;;;18.18;47.19
42887;BME280;29032;56.028;92.904;2022-07-03T04:43:48;98516.53;;;18.29;47.79
42887;BME280;29032;56.028;92.904;2022-07-03T04:48:52;98508.31;;;18.45;47.74
42887;BME280;29032;56.028;92.904;2022-07-03T04:53:54;98504.53;;;18.52;47.71
42887;BME280;29032;56.028;92.904;2022-07-03T04:58:56;98504.75;;;18.67;46.89
42887;BME280;29032;56.028;92.904;2022-07-03T05:03:59;98509.50;;;18.77;47.37
42887;BME280;29032;56.028;92.904;2022-07-03T05:09:01;98497.53;;;18.64;46.56
42887;BME280;29032;56.028;92.904;2022-07-03T05:14:04;98504.25;;;18.59;46.14
42887;BME280;29032;56.028;92.904;2022-07-03T05:19:07;98512.47;;;18.67;47.25
42887;BME280;29032;56.028;92.904;2022-07-03T05:24:09;98505.97;;;18.64;46.61
42887;BME280;29032;56.028;92.904;2022-07-03T05:29:12;98510.88;;;18.64;46.62
42887;BME280;29032;56.028;92.904;2022-07-03T05:34:15;98501.66;;;18.63;46.74
42887;BME280;29032;56.028;92.904;2022-07-03T05:39:17;98506.72;;;18.53;46.56
42887;BME280;29032;56.028;92.904;2022-07-03T05:44:20;98499.97;;;18.58;46.60
42887;BME280;29032;56.028;92.904;2022-07-03T05:49:23;98500.56;;;18.69;46.10
42887;BME280;29032;56.028;92.904;2022-07-03T05:54:25;98495.66;;;18.69;45.51
42887;BME280;29032;56.028;92.904;2022-07-03T05:59:27;98494.41;;;18.84;45.08
42887;BME280;29032;56.028;92.904;2022-07-03T06:04:31;98483.81;;;19.19;44.83
42887;BME280;29032;56.028;92.904;2022-07-03T06:09:33;98483.47;;;19.13;44.13
42887;BME280;29032;56.028;92.904;2022-07-03T06:14:35;98487.28;;;19.06;44.40
42887;BME280;29032;56.028;92.904;2022-07-03T06:19:39;98482.47;;;19.46;44.57
42887;BME280;29032;56.028;92.904;2022-07-03T06:24:41;98470.31;;;19.69;43.15
42887;BME280;29032;56.028;92.904;2022-07-03T06:29:43;98474.81;;;19.86;43.57
42887;BME280;29032;56.028;92.904;2022-07-03T06:34:47;98492.97;;;20.08;43.31
42887;BME280;29032;56.028;92.904;2022-07-03T06:39:49;98487.84;;;20.18;42.07
42887;BME280;29032;56.028;92.904;2022-07-03T06:44:51;98483.56;;;20.17;41.88
42887;BME280;29032;56.028;92.904;2022-07-03T06:49:54;98488.88;;;20.11;42.84
42887;BME280;29032;56.028;92.904;2022-07-03T06:54:57;98474.63;;;19.95;42.01
42887;BME280;29032;56.028;92.904;2022-07-03T06:59:59;98474.84;;;19.99;42.56
42887;BME280;29032;56.028;92.904;2022-07-03T07:05:02;98473.19;;;20.08;43.23
42887;BME280;29032;56.028;92.904;2022-07-03T07:10:06;98471.72;;;20.07;41.24
42887;BME280;29032;56.028;92.904;2022-07-03T07:15:09;98469.28;;;20.01;41.89
42887;BME280;29032;56.028;92.904;2022-07-03T07:20:13;98473.19;;;20.08;42.88
42887;BME280;29032;56.028;92.904;2022-07-03T07:25:15;98476.75;;;20.09;42.07
42887;BME280;29032;56.028;92.904;2022-07-03T07:30:17;98476.25;;;20.12;41.27
42887;BME280;29032;56.028;92.904;2022-07-03T07:35:20;98477.69;;;20.13;42.41
42887;BME280;29032;56.028;92.904;2022-07-03T07:40:23;98467.31;;;20.18;41.34
42887;BME280;29032;56.028;92.904;2022-07-03T07:45:25;98469.66;;;20.21;41.07
42887;BME280;29032;56.028;92.904;2022-07-03T07:50:28;98467.78;;;20.26;41.77
42887;BME280;29032;56.028;92.904;2022-07-03T07:55:31;98464.63;;;20.20;42.17
42887;BME280;29032;56.028;92.904;2022-07-03T08:00:33;98468.28;;;20.22;42.25
42887;BME280;29032;56.028;92.904;2022-07-03T08:05:36;98459.91;;;20.24;41.96
42887;BME280;29032;56.028;92.904;2022-07-03T08:10:40;98466.59;;;20.17;41.17
42887;BME280;29032;56.028;92.904;2022-07-03T08:15:43;98471.91;;;20.11;41.14
42887;BME280;29032;56.028;92.904;2022-07-03T08:20:46;98476.75;;;20.09;41.46
42887;BME280;29032;56.028;92.904;2022-07-03T08:25:49;98492.09;;;19.92;41.94
42887;BME280;29032;56.028;92.904;2022-07-03T08:30:51;98487.22;;;19.81;41.60
42887;BME280;29032;56.028;92.904;2022-07-03T08:35:54;98493.38;;;19.77;41.61
42887;BME280;29032;56.028;92.904;2022-07-03T08:40:58;98499.53;;;19.73;42.30
42887;BME280;29032;56.028;92.904;2022-07-03T08:46:01;98506.94;;;19.67;42.37
42887;BME280;29032;56.028;92.904;2022-07-03T08:51:04;98507.66;;;19.67;42.23
42887;BME280;29032;56.028;92.904;2022-07-03T08:56:07;98510.88;;;19.62;43.02
42887;BME280;29032;56.028;92.904;2022-07-03T09:01:15;98521.22;;;19.57;42.96
42887;BME280;29032;56.028;92.904;2022-07-03T09:06:19;98532.56;;;19.45;42.39
42887;BME280;29032;56.028;92.904;2022-07-03T09:11:23;98539.16;;;19.50;42.40
42887;BME280;29032;56.028;92.904;2022-07-03T09:16:25;98535.78;;;19.65;41.63
42887;BME280;29032;56.028;92.904;2022-07-03T09:21:35;98552.88;;;19.93;42.21
42887;BME280;29032;56.028;92.904;2022-07-03T09:26:50;98552.53;;;20.12;43.11
42887;BME280;29032;56.028;92.904;2022-07-03T09:31:55;98561.34;;;20.32;42.39
42887;BME280;29032;56.028;92.904;2022-07-03T09:36:59;98567.53;;;20.28;43.05
42887;BME280;29032;56.028;92.904;2022-07-03T09:42:02;98562.66;;;20.17;43.17
42887;BME280;29032;56.028;92.904;2022-07-03T09:47:06;98554.66;;;20.39;42.71
42887;BME280;29032;56.028;92.904;2022-07-03T09:52:29;98551.91;;;20.67;42.66
42887;BME280;29032;56.028;92.904;2022-07-03T09:57:31;98549.28;;;20.84;41.64
42887;BME280;29032;56.028;92.904;2022-07-03T10:02:33;98542.97;;;21.14;41.29
42887;BME280;29032;56.028;92.904;2022-07-03T10:07:49;98554.16;;;21.53;41.04
42887;BME280;29032;56.028;92.904;2022-07-03T10:12:51;98542.53;;;21.76;41.56
42887;BME280;29032;56.028;92.904;2022-07-03T10:17:55;98531.34;;;21.64;39.29
42887;BME280;29032;56.028;92.904;2022-07-03T10:22:59;98531.72;;;21.73;38.60
42887;BME280;29032;56.028;92.904;2022-07-03T10:28:02;98530.84;;;21.84;38.10
42887;BME280;29032;56.028;92.904;2022-07-03T10:33:04;98527.75;;;21.93;37.40
42887;BME280;29032;56.028;92.904;2022-07-03T10:38:18;98535.84;;;22.15;39.12
42887;BME280;29032;56.028;92.904;2022-07-03T10:43:27;98549.03;;;22.24;37.66
42887;BME280;29032;56.028;92.904;2022-07-03T10:48:50;98543.81;;;22.50;38.42
42887;BME280;29032;56.028;92.904;2022-07-03T10:54:18;98534.94;;;22.58;37.37
42887;BME280;29032;56.028;92.904;2022-07-03T10:59:20;98537.31;;;22.47;35.49
42887;BME280;29032;56.028;92.904;2022-07-03T11:04:23;98528.38;;;22.37;36.06
42887;BME280;29032;56.028;92.904;2022-07-03T11:09:26;98522.97;;;22.12;37.00
42887;BME280;29032;56.028;92.904;2022-07-03T11:14:29;98526.34;;;21.79;38.19
42887;BME280;29032;56.028;92.904;2022-07-03T11:19:32;98527.19;;;21.52;37.60
42887;BME280;29032;56.028;92.904;2022-07-03T11:24:43;98537.94;;;21.40;38.53
42887;BME280;29032;56.028;92.904;2022-07-03T11:30:00;98529.53;;;21.71;38.68
42887;BME280;29032;56.028;92.904;2022-07-03T11:35:02;98538.97;;;22.37;36.76
42887;BME280;29032;56.028;92.904;2022-07-03T11:40:07;98536.84;;;23.88;35.09
42887;BME280;29032;56.028;92.904;2022-07-03T11:45:09;98542.38;;;24.01;34.53
42887;BME280;29032;56.028;92.904;2022-07-03T11:50:12;98541.50;;;23.79;35.44
42887;BME280;29032;56.028;92.904;2022-07-03T11:55:15;98553.69;;;23.30;36.94
42887;BME280;29032;56.028;92.904;2022-07-03T12:00:18;98558.63;;;22.48;37.69
42887;BME280;29032;56.028;92.904;2022-07-03T12:05:20;98557.38;;;21.90;38.92
42887;BME280;29032;56.028;92.904;2022-07-03T12:10:36;98553.75;;;21.74;39.48
42887;BME280;29032;56.028;92.904;2022-07-03T12:15:38;98545.56;;;21.37;40.57
42887;BME280;29032;56.028;92.904;2022-07-03T12:20:41;98542.66;;;21.21;41.15
42887;BME280;29032;56.028;92.904;2022-07-03T12:25:44;98548.97;;;21.06;41.52
42887;BME280;29032;56.028;92.904;2022-07-03T12:30:46;98540.06;;;20.84;42.44
42887;BME280;29032;56.028;92.904;2022-07-03T12:36:02;98542.16;;;20.83;42.09
42887;BME280;29032;56.028;92.904;2022-07-03T12:41:07;98549.78;;;20.67;42.85
42887;BME280;29032;56.028;92.904;2022-07-03T12:46:17;98549.59;;;20.63;42.52
42887;BME280;29032;56.028;92.904;2022-07-03T12:51:39;98553.34;;;20.54;42.32
42887;BME280;29032;56.028;92.904;2022-07-03T12:56:43;98564.69;;;20.28;42.68
42887;BME280;29032;56.028;92.904;2022-07-03T13:01:46;98576.47;;;20.11;42.93
42887;BME280;29032;56.028;92.904;2022-07-03T13:07:02;98587.31;;;20.03;42.81
42887;BME280;29032;56.028;92.904;2022-07-03T13:12:07;98599.63;;;19.96;43.14
42887;BME280;29032;56.028;92.904;2022-07-03T13:17:09;98604.09;;;19.87;43.36
42887;BME280;29032;56.028;92.904;2022-07-03T13:22:11;98595.03;;;19.77;46.88
42887;BME280;29032;56.028;92.904;2022-07-03T13:27:15;98596.13;;;19.84;43.99
42887;BME280;29032;56.028;92.904;2022-07-03T13:32:17;98602.44;;;19.70;44.39
42887;BME280;29032;56.028;92.904;2022-07-03T13:37:19;98597.44;;;19.57;44.93
42887;BME280;29032;56.028;92.904;2022-07-03T13:42:23;98608.59;;;19.55;45.20
42887;BME280;29032;56.028;92.904;2022-07-03T13:47:25;98609.13;;;19.40;45.60
42887;BME280;29032;56.028;92.904;2022-07-03T13:52:27;98619.94;;;19.32;45.72
42887;BME280;29032;56.028;92.904;2022-07-03T13:57:31;98618.50;;;19.31;45.55
42887;BME280;29032;56.028;92.904;2022-07-03T14:02:33;98621.94;;;19.17;46.32
42887;BME280;29032;56.028;92.904;2022-07-03T14:07:35;98621.72;;;19.13;46.13
42887;BME280;29032;56.028;92.904;2022-07-03T14:12:38;98615.69;;;19.07;48.62
42887;BME280;29032;56.028;92.904;2022-07-03T14:17:40;98636.41;;;19.00;48.14
42887;BME280;29032;56.028;92.904;2022-07-03T14:22:43;98632.97;;;18.90;48.18
42887;BME280;29032;56.028;92.904;2022-07-03T14:27:46;98636.50;;;18.90;46.73
42887;BME280;29032;56.028;92.904;2022-07-03T14:32:48;98639.81;;;18.75;48.61
42887;BME280;29032;56.028;92.904;2022-07-03T14:37:50;98642.25;;;18.69;49.37
42887;BME280;29032;56.028;92.904;2022-07-03T14:42:54;98643.25;;;18.74;47.69
42887;BME280;29032;56.028;92.904;2022-07-03T14:47:56;98633.53;;;18.53;49.43
42887;BME280;29032;56.028;92.904;2022-07-03T14:52:58;98637.94;;;18.56;49.49
42887;BME280;29032;56.028;92.904;2022-07-03T14:58:04;98642.38;;;18.59;48.37
42887;BME280;29032;56.028;92.904;2022-07-03T15:03:07;98649.84;;;18.43;50.26
42887;BME280;29032;56.028;92.904;2022-07-03T15:13:47;98660.84;;;18.39;48.62
42887;BME280;29032;56.028;92.904;2022-07-03T15:18:49;98664.50;;;18.30;48.98
42887;BME280;29032;56.028;92.904;2022-07-03T15:23:52;98667.31;;;18.30;48.98
42887;BME280;29032;56.028;92.904;2022-07-03T15:28:58;98669.63;;;18.33;50.26
42887;BME280;29032;56.028;92.904;2022-07-03T15:34:02;98675.03;;;18.29;49.04
42887;BME280;29032;56.028;92.904;2022-07-03T15:39:05;98675.47;;;18.26;50.06
42887;BME280;29032;56.028;92.904;2022-07-03T15:44:17;98674.31;;;18.29;49.85
42887;BME280;29032;56.028;92.904;2022-07-03T15:49:26;98673.50;;;18.17;50.30
42887;BME280;29032;56.028;92.904;2022-07-03T15:54:31;98674.03;;;18.03;50.21
42887;BME280;29032;56.028;92.904;2022-07-03T15:59:39;98671.91;;;17.92;51.55
42887;BME280;29032;56.028;92.904;2022-07-03T16:05:02;98675.13;;;17.98;50.66
42887;BME280;29032;56.028;92.904;2022-07-03T16:10:05;98670.91;;;17.88;50.47
42887;BME280;29032;56.028;92.904;2022-07-03T16:15:10;98670.75;;;17.85;50.45
42887;BME280;29032;56.028;92.904;2022-07-03T16:20:12;98668.66;;;17.74;51.09
42887;BME280;29032;56.028;92.904;2022-07-03T16:25:15;98673.00;;;17.66;51.68
42887;BME280;29032;56.028;92.904;2022-07-03T16:30:18;98675.94;;;17.68;51.48
42887;BME280;29032;56.028;92.904;2022-07-03T16:35:26;98678.75;;;17.68;51.61
42887;BME280;29032;56.028;92.904;2022-07-03T16:40:30;98678.28;;;17.50;52.22
42887;BME280;29032;56.028;92.904;2022-07-03T16:45:34;98678.44;;;17.42;52.41
42887;BME280;29032;56.028;92.904;2022-07-03T16:50:36;98671.44;;;17.22;54.67
42887;BME280;29032;56.028;92.904;2022-07-03T16:55:43;98666.91;;;17.17;53.23
42887;BME280;29032;56.028;92.904;2022-07-03T17:00:46;98671.97;;;17.09;54.46
42887;BME280;29032;56.028;92.904;2022-07-03T17:05:51;98670.53;;;16.98;54.66
42887;BME280;29032;56.028;92.904;2022-07-03T17:10:55;98676.03;;;16.86;54.91
42887;BME280;29032;56.028;92.904;2022-07-03T17:16:01;98675.59;;;16.90;54.77
42887;BME280;29032;56.028;92.904;2022-07-03T17:21:05;98668.53;;;16.79;54.74
42887;BME280;29032;56.028;92.904;2022-07-03T17:26:08;98674.16;;;16.79;54.52
42887;BME280;29032;56.028;92.904;2022-07-03T17:31:16;98683.75;;;16.86;55.42
42887;BME280;29032;56.028;92.904;2022-07-03T17:36:20;98679.47;;;16.85;54.69
42887;BME280;29032;56.028;92.904;2022-07-03T17:41:24;98688.34;;;16.81;54.77
42887;BME280;29032;56.028;92.904;2022-07-03T17:46:28;98689.66;;;16.80;54.94
42887;BME280;29032;56.028;92.904;2022-07-03T17:51:31;98681.44;;;16.63;55.09
42887;BME280;29032;56.028;92.904;2022-07-03T17:56:34;98689.75;;;16.61;55.88
42887;BME280;29032;56.028;92.904;2022-07-03T18:01:38;98688.41;;;16.62;55.09
42887;BME280;29032;56.028;92.904;2022-07-03T18:06:41;98689.16;;;16.53;55.58
42887;BME280;29032;56.028;92.904;2022-07-03T18:11:48;98693.88;;;16.50;55.46
42887;BME280;29032;56.028;92.904;2022-07-03T18:16:59;98686.94;;;16.41;55.57
42887;BME280;29032;56.028;92.904;2022-07-03T18:22:02;98683.56;;;16.33;55.64
42887;BME280;29032;56.028;92.904;2022-07-03T18:27:08;98683.72;;;16.26;56.03
42887;BME280;29032;56.028;92.904;2022-07-03T18:32:13;98678.69;;;16.24;56.45
42887;BME280;29032;56.028;92.904;2022-07-03T18:37:18;98686.06;;;16.10;56.40
42887;BME280;29032;56.028;92.904;2022-07-03T18:42:21;98687.13;;;15.85;58.32
42887;BME280;29032;56.028;92.904;2022-07-03T18:47:26;98680.75;;;15.85;57.44
42887;BME280;29032;56.028;92.904;2022-07-03T18:52:36;98685.91;;;15.88;57.23
42887;BME280;29032;56.028;92.904;2022-07-03T18:57:49;98690.38;;;15.91;56.52
42887;BME280;29032;56.028;92.904;2022-07-03T19:02:58;98684.44;;;15.87;56.73
42887;BME280;29032;56.028;92.904;2022-07-03T19:08:03;98684.31;;;15.76;57.47
42887;BME280;29032;56.028;92.904;2022-07-03T19:13:06;98685.19;;;15.69;57.64
42887;BME280;29032;56.028;92.904;2022-07-03T19:18:10;98687.41;;;15.70;57.72
42887;BME280;29032;56.028;92.904;2022-07-03T19:23:12;98680.44;;;15.61;57.63
42887;BME280;29032;56.028;92.904;2022-07-03T19:28:14;98686.47;;;15.58;57.82
42887;BME280;29032;56.028;92.904;2022-07-03T19:33:18;98686.47;;;15.58;57.93
42887;BME280;29032;56.028;92.904;2022-07-03T19:38:21;98681.13;;;15.43;59.29
42887;BME280;29032;56.028;92.904;2022-07-03T19:43:23;98685.69;;;15.38;58.34
42887;BME280;29032;56.028;92.904;2022-07-03T19:48:27;98686.72;;;15.43;58.37
42887;BME280;29032;56.028;92.904;2022-07-03T19:53:29;98686.13;;;15.34;58.00
42887;BME280;29032;56.028;92.904;2022-07-03T19:58:31;98679.16;;;15.26;58.49
42887;BME280;29032;56.028;92.904;2022-07-03T20:03:34;98681.38;;;15.27;58.42
42887;BME280;29032;56.028;92.904;2022-07-03T20:08:37;98680.78;;;15.19;58.53
42887;BME280;29032;56.028;92.904;2022-07-03T20:13:39;98669.25;;;15.15;58.60
42887;BME280;29032;56.028;92.904;2022-07-03T20:18:42;98669.97;;;15.16;58.63
42887;BME280;29032;56.028;92.904;2022-07-03T20:23:44;98672.44;;;15.02;58.97
42887;BME280;29032;56.028;92.904;2022-07-03T20:28:46;98670.97;;;15.01;59.30
42887;BME280;29032;56.028;92.904;2022-07-03T20:33:50;98671.28;;;15.05;58.81
42887;BME280;29032;56.028;92.904;2022-07-03T20:38:52;98677.31;;;15.01;58.91
42887;BME280;29032;56.028;92.904;2022-07-03T20:43:54;98683.91;;;14.96;59.10
42887;BME280;29032;56.028;92.904;2022-07-03T20:48:58;98693.06;;;14.97;59.27
42887;BME280;29032;56.028;92.904;2022-07-03T20:54:00;98682.25;;;14.83;59.63
42887;BME280;29032;56.028;92.904;2022-07-03T20:59:02;98674.25;;;14.80;59.59
42887;BME280;29032;56.028;92.904;2022-07-03T21:04:06;98680.59;;;14.80;59.65
42887;BME280;29032;56.028;92.904;2022-07-03T21:09:08;98688.03;;;14.68;59.67
42887;BME280;29032;56.028;92.904;2022-07-03T21:14:14;98686.81;;;14.62;59.68
42887;BME280;29032;56.028;92.904;2022-07-03T21:19:18;98677.53;;;14.59;60.10
42887;BME280;29032;56.028;92.904;2022-07-03T21:24:20;98693.00;;;14.60;59.59
42887;BME280;29032;56.028;92.904;2022-07-03T21:29:22;98691.78;;;14.53;59.93
42887;BME280;29032;56.028;92.904;2022-07-03T21:34:26;98691.28;;;14.47;60.25
42887;BME280;29032;56.028;92.904;2022-07-03T21:39:28;98694.94;;;14.40;60.53
42887;BME280;29032;56.028;92.904;2022-07-03T21:44:30;98707.78;;;14.43;60.53
42887;BME280;29032;56.028;92.904;2022-07-03T21:49:34;98705.47;;;14.49;60.15
42887;BME280;29032;56.028;92.904;2022-07-03T21:54:36;98711.34;;;14.44;60.39
42887;BME280;29032;56.028;92.904;2022-07-03T21:59:38;98710.09;;;14.37;60.85
42887;BME280;29032;56.028;92.904;2022-07-03T22:04:42;98716.19;;;14.43;60.38
42887;BME280;29032;56.028;92.904;2022-07-03T22:09:44;98715.06;;;14.29;60.93
42887;BME280;29032;56.028;92.904;2022-07-03T22:14:46;98708.91;;;14.13;61.52
42887;BME280;29032;56.028;92.904;2022-07-03T22:19:50;98712.75;;;14.18;61.17
42887;BME280;29032;56.028;92.904;2022-07-03T22:24:52;98712.53;;;14.06;61.38
42887;BME280;29032;56.028;92.904;2022-07-03T22:29:54;98719.59;;;14.07;61.64
42887;BME280;29032;56.028;92.904;2022-07-03T22:34:57;98723.31;;;14.10;61.26
42887;BME280;29032;56.028;92.904;2022-07-03T22:39:59;98720.00;;;14.03;61.40
42887;BME280;29032;56.028;92.904;2022-07-03T22:45:02;98724.88;;;14.03;61.81
42887;BME280;29032;56.028;92.904;2022-07-03T22:50:07;98721.41;;;14.12;61.37
42887;BME280;29032;56.028;92.904;2022-07-03T22:55:09;98732.88;;;14.07;61.55
42887;BME280;29032;56.028;92.904;2022-07-03T23:00:12;98735.22;;;14.10;61.53
42887;BME280;29032;56.028;92.904;2022-07-03T23:05:16;98745.63;;;14.00;62.30
42887;BME280;29032;56.028;92.904;2022-07-03T23:10:18;98751.09;;;13.90;62.21
42887;BME280;29032;56.028;92.904;2022-07-03T23:15:20;98755.97;;;13.90;62.06
42887;BME280;29032;56.028;92.904;2022-07-03T23:20:23;98762.81;;;13.96;62.19
42887;BME280;29032;56.028;92.904;2022-07-03T23:25:26;98756.31;;;13.94;62.01
42887;BME280;29032;56.028;92.904;2022-07-03T23:30:28;98754.00;;;14.00;61.57
42887;BME280;29032;56.028;92.904;2022-07-03T23:35:31;98764.53;;;14.09;62.63
42887;BME280;29032;56.028;92.904;2022-07-03T23:40:33;98762.63;;;14.12;62.18
42887;BME280;29032;56.028;92.904;2022-07-03T23:45:36;98770.81;;;14.17;61.75
42887;BME280;29032;56.028;92.904;2022-07-03T23:50:39;98772.63;;;14.22;62.24
42887;BME280;29032;56.028;92.904;2022-07-03T23:55:41;98774.69;;;14.22;62.03
